createdAt,value
2018-12-06T00:02:00.573Z,10.73
2018-12-06T00:04:34.179Z,11.90
2018-12-06T00:07:08.757Z,11.88
2018-12-06T00:09:42.333Z,10.10
2018-12-06T00:12:15.855Z,11.60
2018-12-06T00:14:49.481Z,10.70
2018-12-06T00:17:23.043Z,9.90
2018-12-06T00:19:56.641Z,12.63
2018-12-06T00:22:30.304Z,9.68
2018-12-06T00:25:04.003Z,12.25
2018-12-06T00:27:38.321Z,14.80
2018-12-06T00:30:35.476Z,10.15
2018-12-06T00:33:10.197Z,8.60
2018-12-06T00:35:45.235Z,9.25
2018-12-06T00:38:18.954Z,10.93
2018-12-06T00:40:52.603Z,13.82
2018-12-06T00:43:26.218Z,10.18
2018-12-06T00:45:59.735Z,9.32
2018-12-06T00:48:34.136Z,11.02
2018-12-06T00:51:07.868Z,10.23
2018-12-06T00:53:42.229Z,11.05
2018-12-06T00:56:16.675Z,11.68
2018-12-06T00:58:50.201Z,9.63
2018-12-06T01:01:23.724Z,9.57
2018-12-06T01:03:57.219Z,11.98
2018-12-06T01:06:30.789Z,12.63
2018-12-06T01:09:04.402Z,10.45
2018-12-06T01:11:38.021Z,8.80
2018-12-06T01:14:11.708Z,13.85
2018-12-06T01:16:45.419Z,12.00
2018-12-06T01:19:19.824Z,13.30
2018-12-06T01:21:53.520Z,9.05
2018-12-06T01:24:27.094Z,9.90
2018-12-06T01:27:00.759Z,12.40
2018-12-06T01:29:34.289Z,8.40
2018-12-06T01:32:07.893Z,9.00
2018-12-06T01:34:41.409Z,5.75
2018-12-06T01:37:14.922Z,8.00
2018-12-06T01:39:48.678Z,3.35
2018-12-06T01:42:22.313Z,10.10
2018-12-06T01:44:55.919Z,8.68
2018-12-06T01:47:30.726Z,12.63
2018-12-06T01:50:05.173Z,12.82
2018-12-06T01:52:38.890Z,12.52
2018-12-06T01:55:13.297Z,7.30
2018-12-06T01:57:47.937Z,9.93
2018-12-06T02:00:21.447Z,9.68
2018-12-06T02:02:55.761Z,7.93
2018-12-06T02:05:29.347Z,10.48
2018-12-06T02:08:02.897Z,17.30
2018-12-06T02:10:36.641Z,8.88
2018-12-06T02:13:10.221Z,8.25
2018-12-06T02:15:43.860Z,7.07
2018-12-06T02:18:17.483Z,10.02
2018-12-06T02:20:51.775Z,8.45
2018-12-06T02:23:26.219Z,8.70
2018-12-06T02:25:59.784Z,7.60
2018-12-06T02:28:33.484Z,8.93
2018-12-06T02:31:07.002Z,12.35
2018-12-06T02:33:40.540Z,9.40
2018-12-06T02:36:15.031Z,9.38
2018-12-06T02:38:49.423Z,11.30
2018-12-06T02:41:23.051Z,9.10
2018-12-06T02:43:56.757Z,8.00
2018-12-06T02:46:30.393Z,8.10
2018-12-06T02:49:04.839Z,8.38
2018-12-06T02:51:38.376Z,7.65
2018-12-06T02:54:11.943Z,12.50
2018-12-06T02:56:45.504Z,11.48
2018-12-06T02:59:19.151Z,9.88
2018-12-06T03:01:53.468Z,10.10
2018-12-06T03:04:27.892Z,9.63
2018-12-06T03:07:01.523Z,12.75
2018-12-06T03:09:35.017Z,10.88
2018-12-06T03:12:09.428Z,11.23
2018-12-06T03:14:43.059Z,9.15
2018-12-06T03:17:16.773Z,11.52
2018-12-06T03:19:50.418Z,9.77
2018-12-06T03:22:24.041Z,8.00
2018-12-06T03:24:58.427Z,14.15
2018-12-06T03:27:31.955Z,12.75
2018-12-06T03:30:05.472Z,11.65
2018-12-06T03:32:38.975Z,8.75
2018-12-06T03:35:12.696Z,9.88
2018-12-06T03:37:47.112Z,11.35
2018-12-06T03:40:21.461Z,9.85
2018-12-06T03:42:55.908Z,10.23
2018-12-06T03:45:30.224Z,10.57
2018-12-06T03:48:03.932Z,9.32
2018-12-06T03:50:38.323Z,7.47
2018-12-06T03:53:12.109Z,7.82
2018-12-06T03:55:45.737Z,10.10
2018-12-06T03:58:19.449Z,11.30
2018-12-06T04:00:52.952Z,9.60
2018-12-06T04:03:26.476Z,14.10
2018-12-06T04:05:59.982Z,8.45
2018-12-06T04:08:33.523Z,9.45
2018-12-06T04:11:07.226Z,8.30
2018-12-06T04:13:40.872Z,8.13
2018-12-06T04:16:15.258Z,11.80
2018-12-06T04:18:48.795Z,8.48
2018-12-06T04:21:22.540Z,10.40
2018-12-06T04:23:56.078Z,10.43
2018-12-06T04:26:29.696Z,8.70
2018-12-06T04:29:04.060Z,8.20
2018-12-06T04:31:37.750Z,10.25
2018-12-06T04:34:12.045Z,10.05
2018-12-06T04:36:45.555Z,5.60
2018-12-06T04:39:19.181Z,7.95
2018-12-06T04:41:53.619Z,7.85
2018-12-06T04:44:27.239Z,8.88
2018-12-06T04:47:00.863Z,7.62
2018-12-06T04:49:34.575Z,10.13
2018-12-06T04:52:08.160Z,8.05
2018-12-06T04:54:41.841Z,11.98
2018-12-06T04:57:15.555Z,9.38
2018-12-06T04:59:49.201Z,8.02
2018-12-06T05:02:22.699Z,9.30
2018-12-06T05:04:57.097Z,9.80
2018-12-06T05:07:31.487Z,9.25
2018-12-06T05:10:05.161Z,8.25
2018-12-06T05:12:39.622Z,8.25
2018-12-06T05:15:13.285Z,10.07
2018-12-06T05:17:47.043Z,10.88
2018-12-06T05:20:20.584Z,6.95
2018-12-06T05:22:54.945Z,8.32
2018-12-06T05:25:28.504Z,11.82
2018-12-06T05:28:02.190Z,9.70
2018-12-06T05:30:35.807Z,8.85
2018-12-06T05:33:09.577Z,7.37
2018-12-06T05:35:43.207Z,9.65
2018-12-06T05:38:16.775Z,10.93
2018-12-06T05:40:50.453Z,10.07
2018-12-06T05:43:23.966Z,8.40
2018-12-06T05:45:57.475Z,9.02
2018-12-06T05:48:31.025Z,10.40
2018-12-06T05:51:04.527Z,9.38
2018-12-06T05:53:38.835Z,8.52
2018-12-06T05:56:12.574Z,8.50
2018-12-06T05:58:46.209Z,8.93
2018-12-06T06:01:19.759Z,12.73
2018-12-06T06:03:53.501Z,13.48
2018-12-06T06:06:27.139Z,10.13
2018-12-06T06:09:00.732Z,9.75
2018-12-06T06:11:34.399Z,8.48
2018-12-06T06:14:08.103Z,7.68
2018-12-06T06:16:41.811Z,7.65
2018-12-06T06:19:15.369Z,13.05
2018-12-06T06:21:49.010Z,8.55
2018-12-06T06:24:23.449Z,10.60
2018-12-06T06:26:57.215Z,12.13
2018-12-06T06:29:30.786Z,9.95
2018-12-06T06:32:04.478Z,10.68
2018-12-06T06:34:38.026Z,11.23
2018-12-06T06:37:11.543Z,9.65
2018-12-06T06:39:45.045Z,8.13
2018-12-06T06:42:18.559Z,9.63
2018-12-06T06:44:52.119Z,12.25
2018-12-06T06:47:25.655Z,9.23
2018-12-06T06:49:59.274Z,8.75
2018-12-06T06:52:33.599Z,11.75
2018-12-06T06:55:07.246Z,11.65
2018-12-06T06:57:40.993Z,11.65
2018-12-06T07:00:15.428Z,11.35
2018-12-06T07:02:49.105Z,11.20
2018-12-06T07:05:22.763Z,10.30
2018-12-06T07:07:56.488Z,9.38
2018-12-06T07:10:30.196Z,11.02
2018-12-06T07:13:03.707Z,10.50
2018-12-06T07:15:37.411Z,11.10
2018-12-06T07:18:11.015Z,14.35
2018-12-06T07:20:44.561Z,12.07
2018-12-06T07:23:19.063Z,17.83
2018-12-06T07:25:52.762Z,17.27
2018-12-06T07:28:27.067Z,15.20
2018-12-06T07:31:00.649Z,18.52
2018-12-06T07:33:34.177Z,17.12
2018-12-06T07:36:07.779Z,17.50
2018-12-06T07:38:41.303Z,12.20
2018-12-06T07:41:15.007Z,17.73
2018-12-06T07:43:48.518Z,20.33
2018-12-06T07:46:22.038Z,14.85
2018-12-06T07:48:55.727Z,15.40
2018-12-06T07:51:29.448Z,13.05
2018-12-06T07:54:03.015Z,15.63
2018-12-06T07:56:36.577Z,15.38
2018-12-06T07:59:11.009Z,18.75
2018-12-06T08:01:45.402Z,15.27
2018-12-06T08:04:19.882Z,14.68
2018-12-06T08:06:53.492Z,16.65
2018-12-06T08:09:27.024Z,12.37
2018-12-06T08:12:00.740Z,12.55
2018-12-06T08:14:34.276Z,12.70
2018-12-06T08:17:08.753Z,10.45
2018-12-06T08:19:42.376Z,8.27
2018-12-06T08:22:16.901Z,13.55
2018-12-06T08:24:50.622Z,8.82
2018-12-06T08:27:25.163Z,10.25
2018-12-06T08:29:59.618Z,9.60
2018-12-06T08:32:33.178Z,10.07
2018-12-06T08:35:06.690Z,11.18
2018-12-06T08:37:40.345Z,12.55
2018-12-06T08:40:14.077Z,11.73
2018-12-06T08:42:48.379Z,10.85
2018-12-06T08:45:22.776Z,11.48
2018-12-06T08:47:56.395Z,10.10
2018-12-06T08:50:30.108Z,13.20
2018-12-06T08:53:04.417Z,15.50
2018-12-06T08:55:37.967Z,13.10
2018-12-06T08:58:11.675Z,10.25
2018-12-06T09:00:45.298Z,9.35
2018-12-06T09:03:18.823Z,13.48
2018-12-06T09:05:52.553Z,9.05
2018-12-06T09:08:26.963Z,8.55
2018-12-06T09:11:01.244Z,10.95
2018-12-06T09:13:34.929Z,10.93
2018-12-06T09:16:08.566Z,7.90
2018-12-06T09:18:42.092Z,12.23
2018-12-06T09:21:15.829Z,13.85
2018-12-06T09:23:49.602Z,9.93
2018-12-06T09:26:23.170Z,12.55
2018-12-06T09:28:57.500Z,13.73
2018-12-06T09:31:31.974Z,12.43
2018-12-06T09:34:05.521Z,9.40
2018-12-06T09:36:39.340Z,12.48
2018-12-06T09:39:12.884Z,11.73
2018-12-06T09:41:46.478Z,10.77
2018-12-06T09:44:20.210Z,19.00
2018-12-06T09:46:54.092Z,12.10
2018-12-06T09:49:27.724Z,9.90
2018-12-06T09:52:01.434Z,15.07
2018-12-06T09:54:34.975Z,13.43
2018-12-06T09:57:08.539Z,11.20
2018-12-06T09:59:42.246Z,11.40
2018-12-06T10:02:15.823Z,8.15
2018-12-06T10:04:49.412Z,9.90
2018-12-06T10:07:22.989Z,5.87
2018-12-06T10:09:56.539Z,6.47
2018-12-06T10:12:30.056Z,7.80
2018-12-06T10:15:04.375Z,5.72
2018-12-06T10:17:38.909Z,8.75
2018-12-06T10:20:13.205Z,5.40
2018-12-06T10:22:46.985Z,3.85
2018-12-06T10:25:20.739Z,3.55
2018-12-06T10:27:54.524Z,3.45
2018-12-06T10:30:28.808Z,2.90
2018-12-06T10:33:02.476Z,2.55
2018-12-06T10:35:37.075Z,2.75
2018-12-06T10:38:11.373Z,2.90
2018-12-06T10:40:44.978Z,2.72
2018-12-06T10:43:18.525Z,4.30
2018-12-06T10:45:52.299Z,2.92
2018-12-06T10:48:26.615Z,2.97
2018-12-06T10:51:12.686Z,2.30
2018-12-06T10:53:46.377Z,2.40
2018-12-06T10:56:20.208Z,1.55
2018-12-06T10:58:53.875Z,4.12
2018-12-06T11:14:50.707Z,3.00
2018-12-06T11:17:24.475Z,2.58
2018-12-06T11:19:58.241Z,3.28
2018-12-06T11:22:31.875Z,3.37
2018-12-06T11:25:05.726Z,3.53
2018-12-06T11:27:40.276Z,4.65
2018-12-06T11:30:14.026Z,4.05
2018-12-06T11:32:48.616Z,6.28
2018-12-06T11:35:22.406Z,3.15
2018-12-06T11:37:56.142Z,3.83
2018-12-06T11:40:29.947Z,3.47
2018-12-06T11:43:03.730Z,4.53
2018-12-06T11:45:37.345Z,3.70
2018-12-06T11:48:11.037Z,3.72
2018-12-06T11:50:44.627Z,5.03
2018-12-06T11:53:19.329Z,3.10
2018-12-06T11:55:52.155Z,3.42
2018-12-06T11:58:25.963Z,5.43
2018-12-06T12:01:00.355Z,4.10
2018-12-06T12:03:34.007Z,3.00
2018-12-06T12:06:07.753Z,3.20
2018-12-06T12:08:41.499Z,4.00
2018-12-06T12:11:15.149Z,3.08
2018-12-06T12:13:49.427Z,3.10
2018-12-06T12:16:23.235Z,4.28
2018-12-06T12:18:57.029Z,2.12
2018-12-06T12:21:30.629Z,2.75
2018-12-06T12:24:04.235Z,7.35
2018-12-06T12:26:37.811Z,3.95
2018-12-06T12:29:11.699Z,3.37
2018-12-06T12:31:45.306Z,5.97
2018-12-06T12:34:18.933Z,5.28
2018-12-06T12:36:53.292Z,2.72
2018-12-06T12:39:27.100Z,2.58
2018-12-06T12:42:00.869Z,3.22
2018-12-06T12:44:34.481Z,2.75
2018-12-06T12:47:08.405Z,1.98
2018-12-06T12:49:42.157Z,1.62
2018-12-06T12:52:15.872Z,5.15
2018-12-06T12:54:49.644Z,2.60
2018-12-06T12:57:23.353Z,3.62
2018-12-06T12:59:56.907Z,2.80
2018-12-06T13:02:30.783Z,1.95
2018-12-06T13:05:04.672Z,4.37
2018-12-06T13:07:38.335Z,1.60
2018-12-06T13:10:12.751Z,1.60
2018-12-06T13:12:46.544Z,5.03
2018-12-06T13:15:20.142Z,3.17
2018-12-06T13:17:53.745Z,4.68
2018-12-06T13:20:27.428Z,3.37
2018-12-06T13:23:01.257Z,4.80
2018-12-06T13:25:35.103Z,3.72
2018-12-06T13:28:09.654Z,3.87
2018-12-06T13:30:44.415Z,1.70
2018-12-06T13:33:18.102Z,2.67
2018-12-06T13:35:51.840Z,2.72
2018-12-06T13:38:25.695Z,3.37
2018-12-06T13:40:59.348Z,2.40
2018-12-06T13:43:33.137Z,2.37
2018-12-06T13:46:07.786Z,16.37
2018-12-06T13:48:41.396Z,3.15
2018-12-06T13:51:15.207Z,4.37
2018-12-06T13:53:48.808Z,2.50
2018-12-06T13:56:22.528Z,3.85
2018-12-06T13:58:56.284Z,5.43
2018-12-06T14:01:29.970Z,2.90
2018-12-06T14:04:03.801Z,3.55
2018-12-06T14:06:38.215Z,2.87
2018-12-06T14:09:11.959Z,2.03
2018-12-06T14:11:45.731Z,2.47
2018-12-06T14:14:19.614Z,2.58
2018-12-06T14:16:54.091Z,2.00
2018-12-06T14:19:27.820Z,1.80
2018-12-06T14:22:01.479Z,5.00
2018-12-06T14:24:36.045Z,5.40
2018-12-06T14:27:10.398Z,1.37
2018-12-06T14:29:44.095Z,3.78
2018-12-06T14:32:17.835Z,1.15
2018-12-06T14:34:52.487Z,0.90
2018-12-06T14:37:26.464Z,2.03
2018-12-06T14:40:00.860Z,2.90
2018-12-06T14:42:35.416Z,2.05
2018-12-06T14:45:09.103Z,1.92
2018-12-06T14:47:42.740Z,5.30
2018-12-06T14:50:17.323Z,2.40
2018-12-06T14:52:51.051Z,1.37
2018-12-06T14:55:24.840Z,2.10
2018-12-06T14:57:58.467Z,2.50
2018-12-06T15:00:32.266Z,2.40
2018-12-06T15:03:06.136Z,4.75
2018-12-06T15:05:40.691Z,1.58
2018-12-06T15:08:15.355Z,3.83
2018-12-06T15:10:49.157Z,2.80
2018-12-06T15:13:22.890Z,2.60
2018-12-06T15:15:57.499Z,4.28
2018-12-06T15:18:31.087Z,2.05
2018-12-06T15:21:04.661Z,2.25
2018-12-06T15:23:38.258Z,4.40
2018-12-06T15:26:11.961Z,3.33
2018-12-06T15:28:46.560Z,3.25
2018-12-06T15:31:20.184Z,2.22
2018-12-06T15:33:53.791Z,4.62
2018-12-06T15:36:28.161Z,5.22
2018-12-06T15:39:01.899Z,5.03
2018-12-06T15:41:35.721Z,2.90
2018-12-06T15:44:09.354Z,2.05
2018-12-06T15:46:43.195Z,3.42
2018-12-06T15:49:16.987Z,2.12
2018-12-06T15:51:50.757Z,3.95
2018-12-06T15:54:25.333Z,4.65
2018-12-06T15:56:59.863Z,4.68
2018-12-06T15:59:33.618Z,3.37
2018-12-06T16:02:08.098Z,6.45
2018-12-06T16:04:41.844Z,2.15
2018-12-06T16:07:16.334Z,3.75
2018-12-06T16:09:50.227Z,2.28
2018-12-06T16:12:24.055Z,3.37
2018-12-06T16:14:57.820Z,2.95
2018-12-06T16:17:32.216Z,3.40
2018-12-06T16:20:05.846Z,1.85
2018-12-06T16:22:39.619Z,3.65
2018-12-06T16:25:13.213Z,3.05
2018-12-06T16:27:46.842Z,2.17
2018-12-06T16:30:20.516Z,1.73
2018-12-06T16:32:54.285Z,2.10
2018-12-06T16:35:28.078Z,2.35
2018-12-06T16:38:02.565Z,1.85
2018-12-06T16:40:36.209Z,3.08
2018-12-06T16:43:09.977Z,1.80
2018-12-06T16:45:43.753Z,2.05
2018-12-06T16:48:17.442Z,1.52
2018-12-06T16:50:51.932Z,3.20
2018-12-06T16:53:25.657Z,5.18
2018-12-06T16:55:59.464Z,3.67
2018-12-06T16:58:33.329Z,1.60
2018-12-06T17:01:07.207Z,3.08
2018-12-06T17:03:42.118Z,1.33
2018-12-06T17:06:15.798Z,2.17
2018-12-06T17:08:50.462Z,4.37
2018-12-06T17:11:24.122Z,2.22
2018-12-06T17:13:57.841Z,1.75
2018-12-06T17:16:31.472Z,2.55
2018-12-06T17:19:05.245Z,4.80
2018-12-06T17:21:38.934Z,2.00
2018-12-06T17:24:12.740Z,1.70
2018-12-06T17:26:46.600Z,5.72
2018-12-06T17:29:20.320Z,7.68
2018-12-06T17:31:54.850Z,4.47
2018-12-06T17:34:28.678Z,2.00
2018-12-06T17:37:02.376Z,3.80
2018-12-06T17:39:36.130Z,1.50
2018-12-06T17:42:09.705Z,2.40
2018-12-06T17:44:43.459Z,6.40
2018-12-06T17:47:17.316Z,2.60
2018-12-06T17:49:51.788Z,2.50
2018-12-06T17:52:25.589Z,4.30
2018-12-06T17:54:59.427Z,2.92
2018-12-06T17:57:33.160Z,4.10
2018-12-06T18:00:07.158Z,2.25
2018-12-06T18:02:41.158Z,3.85
2018-12-06T18:05:14.975Z,2.35
2018-12-06T18:07:48.664Z,2.53
2018-12-06T18:10:22.425Z,2.67
2018-12-06T18:12:56.914Z,3.87
2018-12-06T18:15:30.774Z,4.00
2018-12-06T18:18:04.594Z,2.45
2018-12-06T18:20:38.434Z,2.17
2018-12-06T18:23:12.185Z,2.17
2018-12-06T18:25:46.014Z,1.58
2018-12-06T18:28:19.666Z,2.55
2018-12-06T18:30:53.452Z,3.92
2018-12-06T18:33:27.326Z,2.05
2018-12-06T18:36:01.135Z,3.35
2018-12-06T18:38:34.847Z,2.30
2018-12-06T18:41:08.625Z,5.43
2018-12-06T18:43:43.134Z,2.10
2018-12-06T18:46:16.709Z,3.70
2018-12-06T18:48:50.726Z,10.85
2018-12-06T18:51:24.837Z,3.60
2018-12-06T18:53:59.242Z,3.05
2018-12-06T18:56:33.105Z,1.80
2018-12-06T18:59:06.898Z,2.70
2018-12-06T19:01:40.755Z,7.97
2018-12-06T19:04:14.545Z,3.50
2018-12-06T19:06:48.328Z,5.72
2018-12-06T19:09:22.204Z,4.10
2018-12-06T19:11:55.971Z,2.80
2018-12-06T19:14:29.688Z,2.33
2018-12-06T19:17:03.831Z,2.45
2018-12-06T19:19:38.687Z,3.12
2018-12-06T19:22:12.929Z,5.25
2018-12-06T19:24:46.630Z,2.40
2018-12-06T19:27:20.336Z,2.50
2018-12-06T19:29:54.105Z,3.08
2018-12-06T19:32:28.938Z,5.00
2018-12-06T19:35:02.925Z,4.47
2018-12-06T19:37:37.489Z,3.55
2018-12-06T19:40:11.553Z,6.62
2018-12-06T19:42:45.653Z,3.80
2018-12-06T19:45:19.318Z,3.08
2018-12-06T19:47:52.988Z,2.58
2018-12-06T19:50:27.592Z,4.15
2018-12-06T19:53:01.539Z,2.15
2018-12-06T19:55:36.322Z,2.37
2018-12-06T19:58:10.275Z,2.83
2018-12-06T20:00:44.643Z,2.50
2018-12-06T20:03:18.542Z,2.62
2018-12-06T20:05:52.265Z,4.03
2018-12-06T20:08:26.294Z,4.47
2018-12-06T20:11:00.030Z,1.75
2018-12-06T20:13:33.791Z,1.87
2018-12-06T20:16:08.257Z,2.40
2018-12-06T20:18:42.030Z,2.37
2018-12-06T20:21:15.980Z,2.90
2018-12-06T20:23:50.107Z,2.20
2018-12-06T20:26:25.061Z,4.32
2018-12-06T20:28:59.105Z,2.10
2018-12-06T20:31:33.702Z,2.55
2018-12-06T20:34:07.466Z,3.75
2018-12-06T20:36:41.226Z,3.42
2018-12-06T20:39:14.861Z,3.53
2018-12-06T20:41:48.621Z,4.72
2018-12-06T20:44:22.445Z,2.17
2018-12-06T20:46:56.246Z,1.70
2018-12-06T20:49:30.038Z,2.50
2018-12-06T20:52:03.887Z,3.85
2018-12-06T20:54:37.624Z,3.83
2018-12-06T20:57:11.362Z,3.37
2018-12-06T20:59:45.204Z,1.77
2018-12-06T21:02:19.638Z,2.78
2018-12-06T21:04:53.286Z,2.47
2018-12-06T21:07:27.062Z,2.60
2018-12-06T21:10:00.958Z,3.62
2018-12-06T21:12:34.715Z,2.67
2018-12-06T21:15:08.390Z,1.92
2018-12-06T21:17:42.229Z,2.67
2018-12-06T21:20:15.985Z,2.30
2018-12-06T21:22:50.526Z,2.10
2018-12-06T21:25:24.164Z,1.30
2018-12-06T21:27:57.951Z,3.08
2018-12-06T21:30:31.607Z,2.00
2018-12-06T21:33:05.429Z,2.97
2018-12-06T21:35:39.253Z,1.80
2018-12-06T21:38:12.973Z,3.37
2018-12-06T21:40:47.584Z,2.15
2018-12-06T21:43:21.241Z,1.80
2018-12-06T21:45:55.147Z,4.35
2018-12-06T21:48:28.723Z,2.97
2018-12-06T21:51:02.683Z,3.53
2018-12-06T21:53:36.435Z,1.98
2018-12-06T21:56:10.111Z,1.60
2018-12-06T21:58:43.758Z,3.42
2018-12-06T22:01:17.582Z,1.35
2018-12-06T22:03:51.212Z,1.70
2018-12-06T22:06:25.810Z,1.08
2018-12-06T22:08:59.612Z,1.48
2018-12-06T22:11:33.289Z,1.45
2018-12-06T22:14:07.144Z,1.77
2018-12-06T22:16:40.965Z,1.08
2018-12-06T22:19:14.671Z,2.45
2018-12-06T22:21:48.388Z,2.47
2018-12-06T22:24:22.928Z,1.73
2018-12-06T22:26:56.718Z,1.17
2018-12-06T22:29:30.508Z,1.67
2018-12-06T22:32:04.462Z,1.73
2018-12-06T22:34:38.919Z,1.52
2018-12-06T22:37:12.584Z,2.90
2018-12-06T22:39:46.956Z,2.62
2018-12-06T22:42:20.607Z,1.10
2018-12-06T22:44:54.455Z,0.88
2018-12-06T22:47:29.042Z,2.17
2018-12-06T22:50:03.625Z,2.08
2018-12-06T22:52:37.232Z,1.48
2018-12-06T22:55:11.096Z,1.10
2018-12-06T22:57:44.856Z,1.48
2018-12-06T23:00:18.458Z,1.60
2018-12-06T23:02:53.920Z,0.75
2018-12-06T23:05:27.580Z,1.50
2018-12-06T23:08:01.633Z,1.10
2018-12-06T23:10:35.999Z,0.90
2018-12-06T23:13:09.716Z,1.85
2018-12-06T23:15:44.268Z,0.93
2018-12-06T23:18:18.054Z,1.48
2018-12-06T23:20:51.832Z,1.15
2018-12-06T23:23:26.630Z,1.10
2018-12-06T23:26:01.013Z,1.62
2018-12-06T23:28:34.845Z,1.42
2018-12-06T23:31:08.685Z,0.90
2018-12-06T23:33:42.563Z,0.73
2018-12-06T23:36:16.345Z,1.10
2018-12-06T23:38:50.882Z,2.05
2018-12-06T23:41:24.607Z,1.83
2018-12-06T23:43:58.321Z,0.77
2018-12-06T23:46:32.223Z,1.35
2018-12-06T23:49:05.844Z,0.90
2018-12-06T23:51:39.425Z,0.70
2018-12-06T23:54:12.981Z,0.95
2018-12-06T23:56:46.693Z,1.05
2018-12-06T23:59:20.440Z,0.90
